createdAt,value
2017-09-24T00:01:18.076Z,97369.31
2017-09-24T00:03:45.644Z,97362.53
2017-09-24T00:06:13.204Z,97367.53
2017-09-24T00:08:40.821Z,97364.95
2017-09-24T00:11:08.378Z,97362.74
2017-09-24T00:13:35.989Z,97364.00
2017-09-24T00:16:03.543Z,97361.84
2017-09-24T00:18:31.881Z,97367.31
2017-09-24T00:20:59.833Z,97371.91
2017-09-24T00:23:27.434Z,97368.80
2017-09-24T00:25:54.996Z,97369.52
2017-09-24T00:28:22.981Z,97367.27
2017-09-24T00:30:50.526Z,97367.16
2017-09-24T00:33:18.411Z,97366.72
2017-09-24T00:35:45.973Z,97367.12
2017-09-24T00:38:13.516Z,97362.48
2017-09-24T00:40:41.092Z,97366.25
2017-09-24T00:43:08.663Z,97359.45
2017-09-24T00:45:36.231Z,97358.20
2017-09-24T00:48:03.781Z,97362.84
2017-09-24T00:50:31.372Z,97367.92
2017-09-24T00:52:58.930Z,97365.80
2017-09-24T00:55:26.518Z,97366.59
2017-09-24T00:57:54.081Z,97366.55
2017-09-24T01:00:21.982Z,97370.75
2017-09-24T01:02:49.532Z,97370.28
2017-09-24T01:05:17.084Z,97367.27
2017-09-24T01:07:44.662Z,97367.18
2017-09-24T01:10:12.222Z,97366.30
2017-09-24T01:12:39.817Z,97361.22
2017-09-24T01:15:07.363Z,97362.47
2017-09-24T01:17:35.411Z,97355.19
2017-09-24T01:20:02.962Z,97351.70
2017-09-24T01:22:30.505Z,97353.41
2017-09-24T01:24:58.085Z,97353.43
2017-09-24T01:27:25.658Z,97347.48
2017-09-24T01:29:53.521Z,97347.09
2017-09-24T01:32:21.082Z,97347.87
2017-09-24T01:34:49.054Z,97352.09
2017-09-24T01:37:16.778Z,97347.36
2017-09-24T01:39:44.337Z,97340.98
2017-09-24T01:42:11.920Z,97337.20
2017-09-24T01:44:39.531Z,97336.83
2017-09-24T01:47:07.135Z,97341.52
2017-09-24T01:49:34.699Z,97339.36
2017-09-24T01:52:02.279Z,97346.92
2017-09-24T01:54:29.836Z,97343.53
2017-09-24T01:56:57.428Z,97340.98
2017-09-24T01:59:24.977Z,97338.78
2017-09-24T02:01:52.932Z,97344.67
2017-09-24T02:04:20.475Z,97351.35
2017-09-24T02:06:48.036Z,97347.86
2017-09-24T02:09:16.954Z,97352.10
2017-09-24T02:11:44.533Z,97357.19
2017-09-24T02:14:12.100Z,97351.28
2017-09-24T02:16:39.652Z,97347.08
2017-09-24T02:19:07.239Z,97346.63
2017-09-24T02:21:34.778Z,97338.99
2017-09-24T02:24:02.355Z,97342.79
2017-09-24T02:26:29.896Z,97339.78
2017-09-24T02:28:57.537Z,97340.19
2017-09-24T02:31:25.369Z,97342.72
2017-09-24T02:33:52.941Z,97351.14
2017-09-24T02:36:21.314Z,97349.83
2017-09-24T02:38:49.155Z,97354.92
2017-09-24T02:41:16.698Z,97358.74
2017-09-24T02:43:44.271Z,97355.83
2017-09-24T02:46:11.872Z,97362.13
2017-09-24T02:48:39.849Z,97362.91
2017-09-24T02:51:07.401Z,97362.08
2017-09-24T02:53:34.997Z,97363.80
2017-09-24T02:56:02.593Z,97355.38
2017-09-24T02:58:30.126Z,97355.76
2017-09-24T03:00:57.693Z,97364.10
2017-09-24T03:03:25.297Z,97358.17
2017-09-24T03:05:52.905Z,97362.82
2017-09-24T03:08:20.588Z,97364.09
2017-09-24T03:10:48.500Z,97368.72
2017-09-24T03:13:16.043Z,97363.65
2017-09-24T03:15:43.593Z,97368.75
2017-09-24T03:18:11.550Z,97364.52
2017-09-24T03:20:39.224Z,97361.50
2017-09-24T03:23:06.797Z,97361.48
2017-09-24T03:25:34.379Z,97351.31
2017-09-24T03:28:03.242Z,97358.02
2017-09-24T03:30:31.292Z,97356.39
2017-09-24T03:32:58.841Z,97357.66
2017-09-24T03:35:26.704Z,97359.31
2017-09-24T03:37:54.241Z,97355.05
2017-09-24T03:40:21.756Z,97355.90
2017-09-24T03:42:49.795Z,97354.20
2017-09-24T03:45:17.368Z,97359.60
2017-09-24T03:47:45.332Z,97368.72
2017-09-24T03:50:12.896Z,97367.69
2017-09-24T03:52:40.503Z,97370.19
2017-09-24T03:55:08.062Z,97363.05
2017-09-24T03:57:35.646Z,97361.83
2017-09-24T04:00:03.339Z,97366.09
2017-09-24T04:02:30.880Z,97365.66
2017-09-24T04:04:58.788Z,97366.47
2017-09-24T04:07:26.339Z,97363.88
2017-09-24T04:09:53.900Z,97365.13
2017-09-24T04:12:21.471Z,97364.30
2017-09-24T04:14:49.029Z,97364.69
2017-09-24T04:17:16.588Z,97358.73
2017-09-24T04:19:44.255Z,97359.55
2017-09-24T04:22:11.822Z,97354.83
2017-09-24T04:24:39.360Z,97358.20
2017-09-24T04:27:06.928Z,97357.31
2017-09-24T04:29:34.478Z,97352.20
2017-09-24T04:32:02.045Z,97355.11
2017-09-24T04:34:29.611Z,97359.69
2017-09-24T04:36:57.151Z,97359.67
2017-09-24T04:39:24.687Z,97365.92
2017-09-24T04:41:52.222Z,97364.20
2017-09-24T04:44:20.198Z,97363.77
2017-09-24T04:46:48.540Z,97369.66
2017-09-24T04:49:16.093Z,97368.78
2017-09-24T04:51:43.660Z,97371.20
2017-09-24T04:54:11.227Z,97371.58
2017-09-24T04:56:38.803Z,97374.51
2017-09-24T04:59:06.352Z,97375.75
2017-09-24T05:01:33.927Z,97373.22
2017-09-24T05:04:01.481Z,97374.45
2017-09-24T05:06:29.446Z,97375.72
2017-09-24T05:08:57.005Z,97381.96
2017-09-24T05:11:24.566Z,97386.57
2017-09-24T05:13:52.207Z,97384.39
2017-09-24T05:16:19.821Z,97386.11
2017-09-24T05:18:47.386Z,97390.74
2017-09-24T05:21:14.951Z,97387.31
2017-09-24T05:23:42.877Z,97390.19
2017-09-24T05:26:10.415Z,97391.77
2017-09-24T05:28:39.342Z,97402.53
2017-09-24T05:31:06.913Z,97395.77
2017-09-24T05:33:34.474Z,97390.30
2017-09-24T05:36:02.071Z,97394.87
2017-09-24T05:38:29.622Z,97393.09
2017-09-24T05:40:57.519Z,97395.65
2017-09-24T05:43:25.092Z,97398.67
2017-09-24T05:45:52.660Z,97400.89
2017-09-24T05:48:20.228Z,97401.16
2017-09-24T05:50:47.822Z,97402.91
2017-09-24T05:53:15.415Z,97403.38
2017-09-24T05:55:42.977Z,97414.70
2017-09-24T05:58:10.850Z,97410.84
2017-09-24T06:00:38.440Z,97411.25
2017-09-24T06:03:06.007Z,97408.34
2017-09-24T06:05:34.766Z,97401.67
2017-09-24T06:08:02.330Z,97406.45
2017-09-24T06:10:29.902Z,97405.79
2017-09-24T06:12:57.582Z,97406.81
2017-09-24T06:15:25.164Z,97407.09
2017-09-24T06:17:52.738Z,97407.42
2017-09-24T06:20:20.439Z,97418.57
2017-09-24T06:22:48.385Z,97413.28
2017-09-24T06:25:15.940Z,97421.37
2017-09-24T06:27:43.549Z,97421.36
2017-09-24T06:30:11.141Z,97416.33
2017-09-24T06:32:38.697Z,97420.16
2017-09-24T06:35:06.621Z,97424.30
2017-09-24T06:37:34.309Z,97423.55
2017-09-24T06:40:01.886Z,97427.89
2017-09-24T06:42:29.470Z,97425.46
2017-09-24T06:44:57.156Z,97426.75
2017-09-24T06:47:24.817Z,97429.73
2017-09-24T06:49:52.370Z,97430.60
2017-09-24T06:52:19.968Z,97434.43
2017-09-24T06:54:47.525Z,97438.36
2017-09-24T06:57:15.124Z,97428.75
2017-09-24T06:59:42.711Z,97440.25
2017-09-24T07:02:10.303Z,97433.17
2017-09-24T07:04:37.873Z,97436.25
2017-09-24T07:07:07.014Z,97439.36
2017-09-24T07:09:34.740Z,97437.80
2017-09-24T07:12:02.333Z,97442.20
2017-09-24T07:14:30.596Z,97438.49
2017-09-24T07:16:58.173Z,97431.91
2017-09-24T07:19:26.061Z,97440.97
2017-09-24T07:21:54.156Z,97435.97
2017-09-24T07:24:21.714Z,97444.57
2017-09-24T07:26:49.325Z,97447.70
2017-09-24T07:29:16.872Z,97449.15
2017-09-24T07:31:44.461Z,97449.28
2017-09-24T07:34:12.003Z,97453.68
2017-09-24T07:36:39.618Z,97450.05
2017-09-24T07:39:07.234Z,97459.88
2017-09-24T07:41:36.310Z,97461.30
2017-09-24T07:44:03.932Z,97455.02
2017-09-24T07:46:31.481Z,97452.17
2017-09-24T07:48:59.061Z,97458.69
2017-09-24T07:51:26.744Z,97457.16
2017-09-24T07:53:54.344Z,97452.69
2017-09-24T07:56:22.051Z,97454.07
2017-09-24T07:58:51.033Z,97453.80
2017-09-24T08:01:18.593Z,97450.56
2017-09-24T08:03:46.183Z,97447.30
2017-09-24T08:06:13.731Z,97455.93
2017-09-24T08:08:41.546Z,97453.05
2017-09-24T08:11:09.164Z,97456.04
2017-09-24T08:13:37.351Z,97459.58
2017-09-24T08:16:05.308Z,97457.94
2017-09-24T08:18:32.876Z,97458.03
2017-09-24T08:23:34.839Z,97464.88
2017-09-24T08:26:02.419Z,97466.22
2017-09-24T08:28:30.439Z,97466.23
2017-09-24T08:30:59.580Z,97465.90
2017-09-24T08:33:27.177Z,97468.50
2017-09-24T08:35:55.084Z,97467.27
2017-09-24T08:38:22.739Z,97473.22
2017-09-24T08:40:50.441Z,97472.82
2017-09-24T08:43:18.036Z,97472.82
2017-09-24T08:45:45.854Z,97479.61
2017-09-24T08:48:13.801Z,97477.04
2017-09-24T08:50:41.641Z,97470.70
2017-09-24T08:53:09.236Z,97471.55
2017-09-24T08:55:36.821Z,97478.80
2017-09-24T08:58:04.422Z,97474.55
2017-09-24T09:00:32.008Z,97475.42
2017-09-24T09:02:59.621Z,97471.61
2017-09-24T09:05:27.243Z,97467.76
2017-09-24T09:07:55.196Z,97463.92
2017-09-24T09:10:22.906Z,97464.37
2017-09-24T09:12:50.463Z,97469.04
2017-09-24T09:15:18.064Z,97465.24
2017-09-24T09:17:45.654Z,97460.55
2017-09-24T09:20:13.258Z,97460.55
2017-09-24T09:22:41.876Z,97455.41
2017-09-24T09:25:09.442Z,97453.67
2017-09-24T09:27:37.413Z,97457.09
2017-09-24T09:30:05.698Z,97454.95
2017-09-24T09:35:17.198Z,97457.48
2017-09-24T09:37:45.471Z,97455.30
2017-09-24T09:40:13.070Z,97457.86
2017-09-24T09:42:40.682Z,97455.25
2017-09-24T09:45:20.255Z,97456.05
2017-09-24T09:47:48.822Z,97456.44
2017-09-24T09:50:16.417Z,97458.13
2017-09-24T09:52:44.006Z,97460.27
2017-09-24T09:55:12.108Z,97453.43
2017-09-24T09:57:39.688Z,97454.68
2017-09-24T10:00:07.251Z,97450.77
2017-09-24T10:02:36.123Z,97452.50
2017-09-24T10:05:03.666Z,97455.05
2017-09-24T10:10:35.411Z,97446.34
2017-09-24T10:13:03.274Z,97445.97
2017-09-24T10:15:30.846Z,97447.17
2017-09-24T10:17:58.417Z,97446.68
2017-09-24T10:20:27.458Z,97448.84
2017-09-24T10:22:55.112Z,97444.20
2017-09-24T10:25:22.979Z,97439.52
2017-09-24T10:27:50.572Z,97442.97
2017-09-24T10:30:30.497Z,97437.41
2017-09-24T10:32:59.715Z,97436.09
2017-09-24T10:35:27.305Z,97431.31
2017-09-24T10:37:55.060Z,97429.61
2017-09-24T10:40:22.615Z,97423.60
2017-09-24T10:42:50.489Z,97424.84
2017-09-24T10:45:18.078Z,97419.27
2017-09-24T10:47:45.724Z,97413.64
2017-09-24T10:50:13.626Z,97417.87
2017-09-24T10:52:41.222Z,97414.47
2017-09-24T10:55:08.815Z,97414.05
2017-09-24T10:57:37.690Z,97418.28
2017-09-24T11:00:05.286Z,97420.41
2017-09-24T11:02:32.853Z,97420.83
2017-09-24T11:05:00.830Z,97416.95
2017-09-24T11:07:28.410Z,97417.77
2017-09-24T11:09:55.986Z,97413.48
2017-09-24T11:12:23.949Z,97414.75
2017-09-24T11:14:51.528Z,97408.40
2017-09-24T11:17:19.096Z,97412.70
2017-09-24T11:19:46.681Z,97408.86
2017-09-24T11:22:14.350Z,97410.98
2017-09-24T11:24:42.330Z,97407.54
2017-09-24T11:27:09.999Z,97410.02
2017-09-24T11:29:37.556Z,97403.42
2017-09-24T11:32:06.052Z,97403.18
2017-09-24T11:34:35.322Z,97403.40
2017-09-24T11:37:02.963Z,97396.91
2017-09-24T11:39:30.957Z,97395.61
2017-09-24T11:41:58.528Z,97395.56
2017-09-24T11:44:26.452Z,97398.37
2017-09-24T11:46:54.115Z,97394.42
2017-09-24T11:49:21.668Z,97394.00
2017-09-24T11:51:49.590Z,97388.48
2017-09-24T11:54:17.502Z,97389.76
2017-09-24T11:56:45.586Z,97387.13
2017-09-24T11:59:13.231Z,97384.94
2017-09-24T12:01:40.791Z,97386.44
2017-09-24T12:04:08.721Z,97384.39
2017-09-24T12:06:36.338Z,97381.10
2017-09-24T12:09:03.879Z,97376.87
2017-09-24T12:11:31.488Z,97384.44
2017-09-24T12:13:59.086Z,97377.63
2017-09-24T12:16:27.094Z,97380.27
2017-09-24T12:18:54.667Z,97388.94
2017-09-24T12:21:22.194Z,97380.46
2017-09-24T12:23:51.722Z,97382.22
2017-09-24T12:26:19.313Z,97383.78
2017-09-24T12:28:46.922Z,97369.91
2017-09-24T12:31:14.508Z,97367.44
2017-09-24T12:33:42.429Z,97373.03
2017-09-24T12:36:10.010Z,97368.87
2017-09-24T12:38:37.652Z,97362.17
2017-09-24T12:41:05.303Z,97364.84
2017-09-24T12:43:32.920Z,97361.09
2017-09-24T12:46:00.524Z,97366.47
2017-09-24T12:48:28.086Z,97364.42
2017-09-24T12:50:56.082Z,97364.33
2017-09-24T12:53:23.615Z,97362.14
2017-09-24T12:55:51.199Z,97362.64
2017-09-24T12:58:18.804Z,97363.14
2017-09-24T13:00:46.515Z,97361.28
2017-09-24T13:03:14.472Z,97356.47
2017-09-24T13:05:42.039Z,97355.52
2017-09-24T13:08:09.636Z,97357.09
2017-09-24T13:10:37.238Z,97359.57
2017-09-24T13:13:04.828Z,97349.53
2017-09-24T13:15:32.872Z,97348.93
2017-09-24T13:18:00.474Z,97343.13
2017-09-24T13:20:28.025Z,97347.24
2017-09-24T13:22:55.982Z,97345.24
2017-09-24T13:25:23.534Z,97346.27
2017-09-24T13:27:51.091Z,97347.05
2017-09-24T13:30:18.706Z,97344.77
2017-09-24T13:32:46.345Z,97348.55
2017-09-24T13:35:14.304Z,97346.55
2017-09-24T13:37:41.862Z,97343.14
2017-09-24T13:40:09.438Z,97349.73
2017-09-24T13:42:37.057Z,97345.70
2017-09-24T13:45:04.642Z,97344.92
2017-09-24T13:47:32.218Z,97349.86
2017-09-24T13:49:59.810Z,97351.00
2017-09-24T13:52:27.743Z,97351.63
2017-09-24T13:54:55.588Z,97355.45
2017-09-24T13:57:23.164Z,97356.33
2017-09-24T13:59:51.119Z,97356.22
2017-09-24T14:02:18.694Z,97353.29
2017-09-24T14:04:46.273Z,97353.61
2017-09-24T14:07:13.879Z,97355.44
2017-09-24T14:09:41.445Z,97357.72
2017-09-24T14:12:09.341Z,97351.43
2017-09-24T14:14:36.926Z,97362.44
2017-09-24T14:17:04.513Z,97355.55
2017-09-24T14:19:32.230Z,97361.48
2017-09-24T14:22:01.021Z,97366.89
2017-09-24T14:24:29.709Z,97360.73
2017-09-24T14:26:57.261Z,97364.72
2017-09-24T14:29:25.204Z,97365.23
2017-09-24T14:31:52.777Z,97370.02
2017-09-24T14:34:20.372Z,97370.60
2017-09-24T14:36:47.961Z,97370.75
2017-09-24T14:39:15.956Z,97370.81
2017-09-24T14:41:43.860Z,97368.78
2017-09-24T14:44:11.463Z,97371.33
2017-09-24T14:46:39.025Z,97372.21
2017-09-24T14:49:07.946Z,97371.81
2017-09-24T14:51:35.903Z,97375.67
2017-09-24T14:54:03.468Z,97375.70
2017-09-24T14:56:31.088Z,97378.35
2017-09-24T14:58:58.698Z,97378.89
2017-09-24T15:01:26.272Z,97375.15
2017-09-24T15:03:53.886Z,97380.77
2017-09-24T15:06:21.756Z,97377.39
2017-09-24T15:08:49.319Z,97372.77
2017-09-24T15:11:16.965Z,97375.44
2017-09-24T15:13:44.989Z,97370.80
2017-09-24T15:16:12.683Z,97369.14
2017-09-24T15:18:40.357Z,97373.04
2017-09-24T15:21:07.945Z,97370.14
2017-09-24T15:23:35.530Z,97373.59
2017-09-24T15:26:03.807Z,97373.69
2017-09-24T15:28:33.041Z,97374.14
2017-09-24T15:31:02.122Z,97379.25
2017-09-24T15:33:29.775Z,97376.34
2017-09-24T15:35:57.367Z,97375.52
2017-09-24T15:38:24.943Z,97377.68
2017-09-24T15:40:52.532Z,97378.56
2017-09-24T15:43:20.113Z,97378.98
2017-09-24T15:45:49.290Z,97376.45
2017-09-24T15:48:16.870Z,97384.61
2017-09-24T15:50:45.375Z,97385.90
2017-09-24T15:53:12.986Z,97385.06
2017-09-24T15:55:40.986Z,97387.68
2017-09-24T15:58:08.925Z,97387.70
2017-09-24T16:00:36.617Z,97390.70
2017-09-24T16:03:04.604Z,97387.80
2017-09-24T16:05:32.163Z,97391.69
2017-09-24T16:07:59.758Z,97393.03
2017-09-24T16:10:27.378Z,97389.25
2017-09-24T16:12:55.482Z,97399.53
2017-09-24T16:15:23.066Z,97396.13
2017-09-24T16:17:50.903Z,97400.88
2017-09-24T16:20:18.476Z,97402.17
2017-09-24T16:22:46.143Z,97403.92
2017-09-24T16:25:13.851Z,97401.84
2017-09-24T16:27:41.926Z,97398.89
2017-09-24T16:30:09.497Z,97404.94
2017-09-24T16:32:37.044Z,97406.29
2017-09-24T16:35:04.635Z,97408.47
2017-09-24T16:37:32.209Z,97407.66
2017-09-24T16:39:59.833Z,97409.02
2017-09-24T16:42:27.441Z,97409.48
2017-09-24T16:44:55.105Z,97413.39
2017-09-24T16:47:22.676Z,97407.42
2017-09-24T16:49:50.626Z,97414.73
2017-09-24T16:52:18.195Z,97415.24
2017-09-24T16:54:45.778Z,97415.29
2017-09-24T16:57:13.384Z,97416.59
2017-09-24T16:59:41.617Z,97425.19
2017-09-24T17:02:09.613Z,97420.97
2017-09-24T17:04:37.191Z,97425.67
2017-09-24T17:07:04.805Z,97426.56
2017-09-24T17:09:32.387Z,97433.45
2017-09-24T17:12:00.041Z,97434.75
2017-09-24T17:14:28.003Z,97437.34
2017-09-24T17:16:55.620Z,97441.22
2017-09-24T17:19:23.228Z,97434.42
2017-09-24T17:21:51.115Z,97434.86
2017-09-24T17:24:18.711Z,97435.33
2017-09-24T17:26:46.969Z,97437.05
2017-09-24T17:29:14.567Z,97434.52
2017-09-24T17:31:42.558Z,97431.96
2017-09-24T17:34:10.126Z,97440.49
2017-09-24T17:36:37.708Z,97434.95
2017-09-24T17:39:07.166Z,97436.68
2017-09-24T17:41:34.773Z,97432.83
2017-09-24T17:44:03.885Z,97440.08
2017-09-24T17:46:31.482Z,97442.19
2017-09-24T17:48:59.038Z,97441.35
2017-09-24T17:51:26.666Z,97447.75
2017-09-24T17:53:54.243Z,97450.30
2017-09-24T17:56:21.810Z,97444.33
2017-09-24T17:58:49.480Z,97448.59
2017-09-24T18:01:17.124Z,97449.86
2017-09-24T18:03:44.699Z,97448.14
2017-09-24T18:06:12.588Z,97453.66
2017-09-24T18:08:40.174Z,97453.24
2017-09-24T18:11:07.898Z,97453.22
2017-09-24T18:13:35.513Z,97451.50
2017-09-24T18:16:04.229Z,97451.08
2017-09-24T18:18:31.893Z,97457.87
2017-09-24T18:20:59.486Z,97453.18
2017-09-24T18:23:27.079Z,97458.72
2017-09-24T18:25:54.715Z,97458.69
2017-09-24T18:28:22.323Z,97462.06
2017-09-24T18:30:49.918Z,97462.06
2017-09-24T18:33:17.612Z,97467.16
2017-09-24T18:35:45.192Z,97470.55
2017-09-24T18:38:13.164Z,97468.80
2017-09-24T18:40:41.212Z,97465.38
2017-09-24T18:43:09.754Z,97467.45
2017-09-24T18:45:37.384Z,97472.98
2017-09-24T18:48:04.945Z,97467.41
2017-09-24T18:50:32.538Z,97466.55
2017-09-24T18:53:00.136Z,97466.92
2017-09-24T18:55:27.688Z,97476.26
2017-09-24T18:57:56.394Z,97469.85
2017-09-24T19:00:24.276Z,97474.51
2017-09-24T19:02:51.844Z,97473.20
2017-09-24T19:05:19.455Z,97471.89
2017-09-24T19:07:47.099Z,97473.97
2017-09-24T19:10:15.051Z,97479.86
2017-09-24T19:12:42.657Z,97477.73
2017-09-24T19:15:10.254Z,97482.34
2017-09-24T19:17:37.865Z,97482.33
2017-09-24T19:20:05.428Z,97478.88
2017-09-24T19:22:33.024Z,97484.36
2017-09-24T19:25:01.225Z,97478.77
2017-09-24T19:27:28.820Z,97477.91
2017-09-24T19:29:56.371Z,97485.06
2017-09-24T19:32:24.016Z,97488.00
2017-09-24T19:34:52.056Z,97484.56
2017-09-24T19:37:20.373Z,97486.22
2017-09-24T19:39:48.401Z,97486.61
2017-09-24T19:42:16.006Z,97486.11
2017-09-24T19:44:43.615Z,97481.81
2017-09-24T19:47:11.236Z,97497.49
2017-09-24T19:49:38.861Z,97487.67
2017-09-24T19:52:06.462Z,97485.97
2017-09-24T19:54:34.786Z,97486.78
2017-09-24T19:57:02.429Z,97490.59
2017-09-24T19:59:30.037Z,97490.11
2017-09-24T20:01:58.006Z,97492.20
2017-09-24T20:04:26.452Z,97494.74
2017-09-24T20:06:54.516Z,97501.91
2017-09-24T20:09:22.068Z,97503.95
2017-09-24T20:11:55.330Z,97503.52
2017-09-24T20:14:22.901Z,97496.29
2017-09-24T20:16:51.010Z,97496.74
2017-09-24T20:19:18.616Z,97498.42
2017-09-24T20:21:46.182Z,97497.98
2017-09-24T20:24:13.818Z,97492.42
2017-09-24T20:26:42.788Z,97489.80
2017-09-24T20:29:10.364Z,97489.77
2017-09-24T20:31:37.946Z,97487.64
2017-09-24T20:34:06.232Z,97489.31
2017-09-24T20:36:34.083Z,97491.81
2017-09-24T20:39:02.031Z,97485.87
2017-09-24T20:41:29.620Z,97491.36
2017-09-24T20:43:57.197Z,97494.28
2017-09-24T20:46:24.806Z,97482.73
2017-09-24T20:48:52.403Z,97489.07
2017-09-24T20:51:20.019Z,97485.66
2017-09-24T20:53:47.572Z,97483.13
2017-09-24T20:56:15.456Z,97486.09
2017-09-24T20:58:43.028Z,97483.94
2017-09-24T21:01:10.611Z,97483.89
2017-09-24T21:03:38.240Z,97486.83
2017-09-24T21:06:05.819Z,97489.34
2017-09-24T21:08:33.761Z,97483.33
2017-09-24T21:11:01.334Z,97484.13
2017-09-24T21:13:28.916Z,97484.06
2017-09-24T21:15:56.526Z,97482.77
2017-09-24T21:18:24.142Z,97484.89
2017-09-24T21:20:51.729Z,97480.61
2017-09-24T21:23:20.691Z,97478.82
2017-09-24T21:25:48.908Z,97484.23
2017-09-24T21:28:16.502Z,97474.88
2017-09-24T21:30:44.438Z,97477.34
2017-09-24T21:33:12.047Z,97472.59
2017-09-24T21:35:39.620Z,97473.38
2017-09-24T21:38:07.223Z,97469.13
2017-09-24T21:40:35.112Z,97469.92
2017-09-24T21:43:03.090Z,97465.22
2017-09-24T21:45:30.653Z,97460.91
2017-09-24T21:47:58.215Z,97462.98
2017-09-24T21:50:26.183Z,97456.16
2017-09-24T21:52:53.769Z,97454.00
2017-09-24T21:55:21.725Z,97451.78
2017-09-24T21:57:49.331Z,97457.23
2017-09-24T22:00:17.213Z,97454.28
2017-09-24T22:02:44.770Z,97461.95
2017-09-24T22:05:12.332Z,97453.89
2017-09-24T22:07:39.916Z,97457.66
2017-09-24T22:10:07.808Z,97455.53
2017-09-24T22:12:35.403Z,97457.64
2017-09-24T22:15:02.977Z,97463.92
2017-09-24T22:17:30.885Z,97463.91
2017-09-24T22:20:03.150Z,97454.95
2017-09-24T22:22:31.127Z,97462.95
2017-09-24T22:24:58.713Z,97467.97
2017-09-24T22:27:26.349Z,97467.93
2017-09-24T22:29:54.313Z,97465.28
2017-09-24T22:32:21.867Z,97464.83
2017-09-24T22:34:49.848Z,97466.91
2017-09-24T22:37:17.402Z,97466.03
2017-09-24T22:39:44.973Z,97464.17
2017-09-24T22:42:12.657Z,97462.03
2017-09-24T22:44:40.609Z,97456.54
2017-09-24T22:47:08.201Z,97452.27
2017-09-24T22:49:35.812Z,97449.34
2017-09-24T22:52:03.406Z,97444.27
2017-09-24T22:54:30.996Z,97439.13
2017-09-24T22:56:58.897Z,97445.41
2017-09-24T22:59:26.465Z,97448.37
2017-09-24T23:01:54.022Z,97447.09
2017-09-24T23:04:21.611Z,97442.86
2017-09-24T23:06:49.197Z,97441.94
2017-09-24T23:09:16.805Z,97435.94
2017-09-24T23:11:44.794Z,97440.02
2017-09-24T23:14:12.385Z,97435.61
2017-09-24T23:16:40.687Z,97441.50
2017-09-24T23:19:08.310Z,97441.85
2017-09-24T23:21:38.747Z,97437.21
2017-09-24T23:24:07.307Z,97443.13
2017-09-24T23:26:35.530Z,97439.70
2017-09-24T23:29:03.494Z,97439.63
2017-09-24T23:31:31.170Z,97431.53
2017-09-24T23:33:59.797Z,97431.90
2017-09-24T23:36:27.712Z,97427.20
2017-09-24T23:38:55.989Z,97428.83
2017-09-24T23:41:23.553Z,97433.01
2017-09-24T23:43:51.307Z,97431.27
2017-09-24T23:46:20.253Z,97425.68
2017-09-24T23:48:48.514Z,97429.32
2017-09-24T23:51:16.904Z,97428.84
2017-09-24T23:53:45.969Z,97422.42
2017-09-24T23:56:13.569Z,97427.44
2017-09-24T23:58:41.141Z,97421.94
